Terminal Aerodrome Forecast
Issued by NWS

Home | Current Version | Previous Version | Text Only | Print | Product List | Glossary On
Versions: 1 2 3 4 5 6 7 8 9 10 11 12 13 14 15 16
419
FTUS46 KMFR 140548
TAFRBG
TAF
KRBG 140548Z 1406/1506 00000KT P6SM -RA SCT015 OVC025
     FM141200 00000KT 5SM -RA BR BKN010 OVC020
     FM141800 VRB02KT 5SM -RA BR FEW004 BKN009 OVC015
     FM142100 VRB02KT 6SM -RA BR BKN010 BKN020 OVC035=

USA.gov is the U.S. government's official web portal to all federal, state and local government web resources and services.